Date,TemperatureHighF,TemperatureAvgF,TemperatureLowF,DewpointHighF,DewpointAvgF,DewpointLowF,HumidityHigh,HumidityAvg,HumidityLow,PressureMaxIn,PressureMinIn,WindSpeedMaxMPH,WindSpeedAvgMPH,GustSpeedMaxMPH,PrecipitationSumIn
2013-1-1,45.5,43.1,40.1,46.0,43.1,40.0,100,100,100,30.20,30.14,13,4,0,0.00
2013-1-2,52.8,43.8,38.6,53.0,43.9,39.0,100,100,100,30.33,30.17,7,1,0,0.01
2013-1-3,49.4,45.9,41.9,49.0,46.0,42.0,100,100,100,30.42,30.33,4,1,0,0.00
2013-1-4,49.4,44.1,37.8,49.0,44.1,38.0,100,100,100,30.34,30.02,11,2,0,0.01
2013-1-5,48.5,43.6,40.2,49.0,43.7,40.0,100,100,100,30.01,29.78,7,2,0,0.04
2013-1-6,42.5,39.4,37.2,43.0,39.4,37.0,100,100,100,29.87,29.76,19,6,0,0.03
2013-1-7,37.8,33.9,31.5,38.0,34.0,32.0,100,100,100,30.02,29.80,16,4,0,0.10
2013-1-8,32.1,28.9,27.5,32.0,28.0,25.0,100,97,81,30.15,30.03,18,6,0,0.00
2013-1-9,32.2,30.0,27.6,29.0,25.7,22.0,97,84,72,30.23,30.12,13,4,0,0.01
2013-1-10,40.3,34.4,28.1,40.0,26.9,22.0,100,75,66,30.22,30.03,16,4,0,0.09
2013-1-11,47.1,44.5,40.2,47.0,43.2,39.0,100,95,77,30.02,29.85,19,7,0,0.23
2013-1-12,51.3,46.0,37.5,51.0,46.0,38.0,100,100,100,30.02,29.83,13,4,0,0.57
2013-1-13,39.3,38.0,36.9,39.0,38.1,37.0,100,100,100,30.31,30.03,7,3,0,0.07
2013-1-14,49.4,42.1,36.2,49.0,42.1,36.0,100,100,100,30.36,30.30,5,1,0,0.01
2013-1-15,56.3,49.3,41.3,56.0,49.3,41.0,100,100,100,30.31,30.12,11,3,0,0.00
2013-1-16,60.1,52.2,46.4,60.0,52.2,46.0,100,100,100,30.12,29.73,21,6,0,0.16
2013-1-17,56.6,51.4,46.0,57.0,51.4,46.0,100,100,100,29.81,29.60,17,6,0,0.10
2013-1-18,57.6,54.6,49.8,58.0,54.7,50.0,100,100,100,29.79,29.51,14,4,0,0.06
2013-1-19,54.5,48.5,45.2,50.0,44.8,41.0,100,88,64,29.78,29.51,16,7,0,0.23
2013-1-20,57.8,52.9,46.8,58.0,49.4,42.0,100,88,69,29.93,29.79,14,6,0,0.01
2013-1-21,63.4,58.0,53.9,63.0,56.2,44.0,100,94,59,29.92,29.75,13,4,0,0.00
2013-1-22,60.9,57.0,52.8,61.0,57.0,53.0,100,100,100,29.76,29.66,21,6,0,0.09
2013-1-23,56.5,54.0,51.4,55.0,49.6,41.0,100,86,62,29.95,29.75,18,5,0,0.07
2013-1-24,59.0,53.3,47.7,47.0,44.4,42.0,89,73,56,29.95,29.62,13,3,0,0.01
2013-1-25,57.3,51.0,41.1,55.0,46.6,41.0,100,86,59,29.78,29.56,19,6,0,0.25
2013-1-26,44.3,42.6,39.9,44.0,42.6,40.0,100,100,100,29.77,29.67,18,8,0,0.10
2013-1-27,43.9,36.6,32.8,44.0,36.6,33.0,100,100,100,29.99,29.74,20,8,0,0.18
2013-1-28,38.0,36.4,34.1,38.0,36.5,34.0,100,100,100,30.06,29.94,8,-7,0,0.04
2013-1-29,37.3,36.5,35.2,37.0,36.5,35.0,100,100,100,30.14,30.06,11,2,0,0.04
2013-1-30,41.8,36.7,32.5,42.0,36.8,33.0,100,100,100,30.11,30.00,7,1,0,0.01
2013-1-31,44.2,39.2,34.0,44.0,39.1,34.0,100,100,90,30.01,29.83,12,3,0,0.39